Terminal Aerodrome Forecast
Issued by NWS Shreveport, LA

Home | Current Version | Previous Version | Text Only | Print | Product List | Glossary On
Versions: 1 2 3 4 5 6 7 8 9 10 11 12 13 14 15
000
FTUS44 KSHV 221700
TAFELD
TAF
KELD 221735Z 2218/2318 17009KT P6SM BKN012 OVC023
     FM222100 18009KT P6SM OVC023
     FM230000 22008KT P6SM SCT100 BKN250
     FM230600 34006KT P6SM OVC100
      TEMPO 2308/2312 5SM -RA BR OVC050
     FM231300 01008KT 4SM -RA BR OVC014
      TEMPO 2314/2318 2SM RA BR=

USA.gov is the U.S. government's official web portal to all federal, state and local government web resources and services.